Lake Grove, New York
Current Conditions -  °F | °C
As of 7:56 AM on Friday 28 Nov 2014 (Local Time) from KISP Reporting Station
Few Clouds Few Clouds  
Wind Chill: 24°   Ceiling: Unl
Heat Index: 33°   Visibility: 10mi
Dew Point: 23°   Wind: 13mph
Humidity: 66%   Direction: 320°NW
Pressure: 30.11"   Gusts: NA
Location:  40.85°N, 73.11°W
Report Text: KISP 281256Z 32011KT 10SM FEW035 FEW110 01/M05 A3011 RMK AO2 SLP195 T00061050
Loading
Personal Weather Stations






























Interactive Weather Map New forecast layout! Learn more

10-Day Weather Forecast

Advertisements
Track Severe Weather on mobile